createdAt,value
2019-01-21T00:01:58.025Z,40.17
2019-01-21T00:06:01.614Z,38.13
2019-01-21T00:10:05.356Z,39.10
2019-01-21T00:14:08.991Z,37.47
2019-01-21T00:18:12.621Z,37.17
2019-01-21T00:22:16.157Z,37.03
2019-01-21T00:26:19.822Z,35.57
2019-01-21T00:30:23.458Z,37.53
2019-01-21T00:34:27.102Z,37.27
2019-01-21T00:38:30.629Z,35.80
2019-01-21T00:42:34.253Z,36.97
2019-01-21T00:46:37.810Z,38.63
2019-01-21T00:50:41.485Z,37.40
2019-01-21T00:54:45.095Z,36.17
2019-01-21T00:58:48.694Z,37.13
2019-01-21T01:02:52.330Z,35.40
2019-01-21T01:06:55.972Z,35.37
2019-01-21T01:10:59.673Z,36.13
2019-01-21T01:15:03.250Z,34.83
2019-01-21T01:19:06.853Z,34.67
2019-01-21T01:23:10.407Z,34.47
2019-01-21T01:27:14.027Z,35.23
2019-01-21T01:31:17.669Z,35.53
2019-01-21T01:35:40.793Z,35.87
2019-01-21T01:39:44.433Z,33.87
2019-01-21T01:43:48.061Z,34.60
2019-01-21T01:47:54.255Z,34.53
2019-01-21T01:51:57.879Z,34.43
2019-01-21T01:56:01.562Z,34.83
2019-01-21T02:00:07.341Z,34.03
2019-01-21T02:04:11.209Z,33.33
2019-01-21T02:08:14.948Z,36.10
2019-01-21T02:12:18.579Z,34.07
2019-01-21T02:16:22.222Z,35.50
2019-01-21T02:20:25.888Z,35.83
2019-01-21T02:24:33.129Z,33.63
2019-01-21T02:28:48.047Z,35.97
2019-01-21T02:33:07.147Z,35.80
2019-01-21T02:37:31.561Z,34.77
2019-01-21T02:41:38.334Z,33.00
2019-01-21T02:46:04.228Z,34.73
2019-01-21T02:50:32.782Z,37.53
2019-01-21T02:54:43.034Z,37.00
2019-01-21T02:58:58.621Z,37.10
2019-01-21T03:03:21.586Z,37.53
2019-01-21T03:07:32.370Z,37.17
2019-01-21T03:12:04.130Z,36.50
2019-01-21T03:16:35.984Z,37.90
2019-01-21T03:20:58.726Z,36.90
2019-01-21T03:25:20.418Z,37.67
2019-01-21T03:29:42.351Z,35.77
2019-01-21T03:34:07.548Z,34.93
2019-01-21T03:38:35.199Z,32.93
2019-01-21T03:42:57.962Z,33.50
2019-01-21T03:47:14.999Z,34.63
2019-01-21T03:51:37.731Z,35.97
2019-01-21T03:55:41.362Z,34.53
2019-01-21T03:59:51.542Z,33.33
2019-01-21T04:04:09.186Z,33.37
2019-01-21T04:08:27.122Z,33.70
2019-01-21T04:12:38.206Z,33.53
2019-01-21T04:17:01.323Z,32.87
2019-01-21T04:21:17.477Z,32.50
2019-01-21T04:25:46.274Z,32.60
2019-01-21T04:30:07.795Z,34.10
2019-01-21T04:34:34.170Z,32.43
2019-01-21T04:38:51.202Z,32.33
2019-01-21T04:43:02.775Z,32.60
2019-01-21T04:47:24.147Z,35.20
2019-01-21T04:51:53.015Z,33.97
2019-01-21T04:56:34.246Z,34.07
2019-01-21T05:00:46.591Z,31.43
2019-01-21T05:05:10.813Z,33.30
2019-01-21T05:09:33.145Z,34.27
2019-01-21T05:13:54.672Z,33.50
2019-01-21T05:18:16.618Z,33.73
2019-01-21T05:22:33.364Z,31.63
2019-01-21T05:27:01.940Z,32.17
2019-01-21T05:31:24.715Z,31.07
2019-01-21T05:35:50.331Z,30.67
2019-01-21T05:40:12.050Z,31.10
2019-01-21T05:44:44.203Z,31.13
2019-01-21T05:48:52.707Z,32.43
2019-01-21T05:53:20.642Z,32.70
2019-01-21T05:57:31.047Z,31.43
2019-01-21T06:01:57.246Z,30.83
2019-01-21T06:06:05.675Z,28.67
2019-01-21T06:10:12.557Z,31.73
2019-01-21T06:14:37.989Z,30.80
2019-01-21T06:19:03.466Z,28.57
2019-01-21T06:23:38.510Z,28.93
2019-01-21T06:27:59.814Z,31.00
2019-01-21T06:32:07.794Z,30.83
2019-01-21T06:36:30.566Z,30.87
2019-01-21T06:40:59.161Z,33.30
2019-01-21T06:45:16.596Z,32.53
2019-01-21T06:49:39.591Z,32.97
2019-01-21T06:54:17.674Z,34.60
2019-01-21T06:58:55.583Z,33.87
2019-01-21T07:03:16.982Z,31.23
2019-01-21T07:07:27.249Z,31.73
2019-01-21T07:11:42.775Z,32.70
2019-01-21T07:16:04.448Z,30.83
2019-01-21T07:20:30.097Z,32.17
2019-01-21T07:24:51.382Z,29.67
2019-01-21T07:29:00.054Z,27.50
2019-01-21T07:33:22.893Z,30.37
2019-01-21T07:37:45.588Z,28.07
2019-01-21T07:42:08.350Z,29.37
2019-01-21T07:46:43.092Z,31.83
2019-01-21T07:50:57.517Z,29.93
2019-01-21T07:55:26.627Z,30.13
2019-01-21T07:59:52.433Z,31.13
2019-01-21T08:04:15.122Z,32.67
2019-01-21T08:08:28.273Z,33.97
2019-01-21T08:12:56.882Z,36.53
2019-01-21T08:17:28.885Z,37.20
2019-01-21T08:21:50.756Z,35.03
2019-01-21T08:25:57.923Z,37.37
2019-01-21T08:30:19.625Z,39.33
2019-01-21T08:34:45.435Z,36.20
2019-01-21T08:39:00.895Z,37.37
2019-01-21T08:43:22.336Z,34.33
2019-01-21T08:47:32.834Z,34.77
2019-01-21T08:51:58.345Z,35.40
2019-01-21T08:56:17.956Z,36.10
2019-01-21T09:00:43.889Z,36.40
2019-01-21T09:05:12.722Z,35.60
2019-01-21T09:09:34.321Z,36.27
2019-01-21T09:13:57.021Z,34.03
2019-01-21T09:18:11.454Z,35.00
2019-01-21T09:22:18.893Z,32.63
2019-01-21T09:26:45.368Z,30.17
2019-01-21T09:31:06.391Z,28.97
2019-01-21T09:35:16.969Z,27.47
2019-01-21T09:39:38.367Z,27.73
2019-01-21T09:43:54.056Z,27.47
2019-01-21T09:47:56.890Z,29.53
2019-01-21T09:52:19.226Z,28.67
2019-01-21T09:56:22.870Z,28.03
2019-01-21T10:00:26.425Z,27.93
2019-01-21T10:04:36.778Z,28.07
2019-01-21T10:09:05.538Z,27.20
2019-01-21T10:13:27.118Z,27.33
2019-01-21T10:17:55.917Z,25.77
2019-01-21T10:22:06.404Z,26.83
2019-01-21T10:26:29.102Z,25.53
2019-01-21T10:30:51.857Z,26.33
2019-01-21T10:35:03.783Z,25.20
2019-01-21T10:39:25.342Z,25.93
2019-01-21T10:44:06.707Z,26.33
2019-01-21T10:48:16.013Z,26.97
2019-01-21T10:52:38.457Z,25.83
2019-01-21T10:57:01.154Z,27.83
2019-01-21T11:01:22.422Z,28.03
2019-01-21T11:05:40.556Z,27.70
2019-01-21T11:09:59.848Z,28.13
2019-01-21T11:14:21.697Z,27.60
2019-01-21T11:18:41.387Z,28.13
2019-01-21T11:22:49.883Z,26.87
2019-01-21T11:27:24.634Z,25.33
2019-01-21T11:31:53.363Z,25.40
2019-01-21T11:36:14.993Z,25.33
2019-01-21T11:40:43.850Z,23.33
2019-01-21T11:45:09.330Z,24.00
2019-01-21T11:49:17.521Z,24.50
2019-01-21T11:53:27.682Z,26.03
2019-01-21T11:57:43.994Z,26.63
2019-01-21T12:02:01.526Z,26.50
2019-01-21T12:06:20.378Z,25.67
2019-01-21T12:10:50.481Z,26.97
2019-01-21T12:15:45.165Z,24.17
2019-01-21T12:20:20.535Z,25.07
2019-01-21T12:24:38.990Z,26.10
2019-01-21T12:29:39.590Z,23.20
2019-01-21T12:34:09.588Z,23.73
2019-01-21T12:38:53.326Z,23.53
2019-01-21T12:43:35.210Z,22.43
2019-01-21T12:47:47.834Z,22.07
2019-01-21T12:52:13.870Z,22.70
2019-01-21T12:57:08.132Z,23.47
2019-01-21T13:01:31.751Z,23.23
2019-01-21T13:06:06.129Z,21.90
2019-01-21T13:10:34.729Z,21.83
2019-01-21T13:15:01.899Z,19.53
2019-01-21T13:19:48.865Z,21.50
2019-01-21T13:24:08.974Z,21.60
2019-01-21T13:28:46.663Z,21.03
2019-01-21T13:33:38.032Z,22.60
2019-01-21T13:38:05.958Z,21.70
2019-01-21T13:42:51.434Z,22.00
2019-01-21T13:47:52.486Z,22.37
2019-01-21T13:52:28.405Z,21.20
2019-01-21T13:56:59.142Z,21.23
2019-01-21T14:01:37.587Z,23.20
2019-01-21T14:06:24.771Z,20.13
2019-01-21T14:10:39.390Z,19.63
2019-01-21T14:15:03.550Z,20.70
2019-01-21T14:19:49.152Z,20.57
2019-01-21T14:24:15.228Z,20.43
2019-01-21T14:28:49.308Z,20.10
2019-01-21T14:33:21.923Z,20.20
2019-01-21T14:38:03.428Z,20.03
2019-01-21T14:42:34.508Z,22.00
2019-01-21T14:47:01.407Z,20.03
2019-01-21T14:51:25.397Z,19.47
2019-01-21T14:55:54.878Z,20.33
2019-01-21T15:00:49.202Z,20.20
2019-01-21T15:05:19.238Z,19.20
2019-01-21T15:10:19.523Z,19.27
2019-01-21T15:15:05.462Z,18.20
2019-01-21T15:20:06.049Z,20.73
2019-01-21T15:24:44.945Z,20.47
2019-01-21T15:29:15.187Z,18.63
2019-01-21T15:33:48.743Z,19.70
2019-01-21T15:39:01.654Z,19.43
2019-01-21T15:43:34.138Z,20.80
2019-01-21T15:48:10.577Z,19.67
2019-01-21T15:52:31.597Z,21.67
2019-01-21T15:57:11.180Z,21.87
2019-01-21T16:01:32.803Z,20.40
2019-01-21T16:06:00.851Z,21.93
2019-01-21T16:10:31.159Z,20.87
2019-01-21T16:14:48.963Z,22.90
2019-01-21T16:19:03.026Z,22.33
2019-01-21T16:23:48.517Z,21.70
2019-01-21T16:28:38.854Z,20.43
2019-01-21T16:33:29.882Z,19.47
2019-01-21T16:38:08.370Z,20.40
2019-01-21T16:42:14.609Z,26.83
2019-01-21T16:46:18.802Z,21.17
2019-01-21T16:50:23.048Z,21.93
2019-01-21T16:54:27.279Z,22.53
2019-01-21T16:58:31.481Z,21.03
2019-01-21T17:02:35.662Z,22.73
2019-01-21T17:06:39.876Z,22.60
2019-01-21T17:10:44.075Z,23.43
2019-01-21T17:14:48.306Z,25.30
2019-01-21T17:18:52.806Z,27.02
2019-01-21T17:22:56.974Z,22.67
2019-01-21T17:27:01.182Z,22.57
2019-01-21T17:31:08.232Z,22.67
2019-01-21T17:35:14.121Z,22.90
2019-01-21T17:39:18.381Z,23.60
2019-01-21T17:43:24.355Z,24.00
2019-01-21T17:47:28.549Z,23.23
2019-01-21T17:51:34.353Z,24.63
2019-01-21T17:55:38.687Z,23.67
2019-01-21T17:59:42.965Z,25.70
2019-01-21T18:03:47.085Z,27.60
2019-01-21T18:07:51.238Z,27.87
2019-01-21T18:11:55.365Z,26.43
2019-01-21T18:15:59.487Z,27.13
2019-01-21T18:20:04.121Z,28.30
2019-01-21T18:24:08.250Z,28.60
2019-01-21T18:28:12.427Z,26.93
2019-01-21T18:32:16.614Z,25.77
2019-01-21T18:36:20.739Z,27.77
2019-01-21T18:40:24.939Z,27.43
2019-01-21T18:44:29.378Z,27.47
2019-01-21T18:48:35.162Z,27.90
2019-01-21T18:52:39.362Z,28.13
2019-01-21T18:56:43.551Z,29.07
2019-01-21T19:00:47.742Z,26.97
2019-01-21T19:04:51.930Z,28.17
2019-01-21T19:08:56.126Z,26.77
2019-01-21T19:13:00.371Z,25.53
2019-01-21T19:17:04.611Z,26.73
2019-01-21T19:21:08.798Z,24.97
2019-01-21T19:25:13.303Z,25.67
2019-01-21T19:29:17.481Z,27.10
2019-01-21T19:33:21.599Z,25.63
2019-01-21T19:37:25.798Z,26.33
2019-01-21T19:41:29.986Z,26.70
2019-01-21T19:45:34.181Z,26.83
2019-01-21T19:49:38.345Z,24.80
2019-01-21T19:53:42.547Z,24.60
2019-01-21T19:57:46.738Z,24.63
2019-01-21T20:01:50.904Z,24.03
2019-01-21T20:05:55.109Z,23.67
2019-01-21T20:09:59.284Z,23.33
2019-01-21T20:14:03.478Z,23.93
2019-01-21T20:18:07.836Z,22.00
2019-01-21T20:22:12.034Z,23.83
2019-01-21T20:26:16.247Z,23.23
2019-01-21T20:30:21.225Z,23.83
2019-01-21T20:34:25.438Z,23.10
2019-01-21T20:38:29.594Z,23.23
2019-01-21T20:42:33.795Z,23.13
2019-01-21T20:46:37.982Z,23.10
2019-01-21T20:50:42.154Z,22.53
2019-01-21T20:54:46.431Z,21.87
2019-01-21T20:58:50.661Z,22.57
2019-01-21T21:02:56.166Z,21.57
2019-01-21T21:07:00.430Z,22.00
2019-01-21T21:11:04.702Z,21.07
2019-01-21T21:15:12.629Z,21.67
2019-01-21T21:19:16.835Z,21.60
2019-01-21T21:23:21.078Z,23.03
2019-01-21T21:27:25.271Z,23.07
2019-01-21T21:31:29.442Z,23.17
2019-01-21T21:35:33.670Z,21.20
2019-01-21T21:39:38.078Z,22.23
2019-01-21T21:43:42.290Z,21.80
2019-01-21T21:47:46.480Z,22.13
2019-01-21T21:51:50.651Z,22.20
2019-01-21T21:55:55.006Z,21.67
2019-01-21T21:59:59.197Z,22.40
2019-01-21T22:04:03.401Z,23.20
2019-01-21T22:08:07.620Z,22.97
2019-01-21T22:12:11.915Z,23.57
2019-01-21T22:16:16.106Z,23.83
2019-01-21T22:20:22.265Z,23.67
2019-01-21T22:24:26.466Z,25.40
2019-01-21T22:28:30.682Z,24.43
2019-01-21T22:32:35.141Z,23.97
2019-01-21T22:36:39.338Z,24.13
2019-01-21T22:40:43.525Z,24.00
2019-01-21T22:44:47.750Z,24.93
2019-01-21T22:48:51.958Z,22.60
2019-01-21T22:52:56.500Z,23.27
2019-01-21T22:57:00.971Z,24.70
2019-01-21T23:01:18.060Z,24.33
2019-01-21T23:05:22.587Z,23.43
2019-01-21T23:09:26.775Z,23.00
2019-01-21T23:13:30.984Z,24.20
2019-01-21T23:17:35.162Z,23.97
2019-01-21T23:21:39.363Z,24.80
2019-01-21T23:25:43.554Z,24.33
2019-01-21T23:29:47.746Z,23.27
2019-01-21T23:33:51.945Z,24.03
2019-01-21T23:37:56.123Z,23.73
2019-01-21T23:42:00.314Z,24.03
2019-01-21T23:46:04.541Z,23.80
2019-01-21T23:50:09.757Z,24.33
2019-01-21T23:54:15.287Z,24.10
2019-01-21T23:58:19.538Z,25.10
